Tescott, Kansas
Current Conditions -  °F | °C
As of 8:53 AM on Friday 24 Oct 2014 (Local Time) from KSLN Reporting Station
Haze Haze  
Wind Chill: 59°   Ceiling: Unl
Heat Index: 59°   Visibility: 2mi
Dew Point: 57°   Wind: 6mph
Humidity: 93%   Direction: 180°S
Pressure: 30.02"   Gusts: NA
Location:  39.01°N, 97.88°W
Report Text: KSLN 241353Z 18005KT 2SM BR SCT004 15/14 A3002 RMK AO2 SLP161 T01500139
Loading
Personal Weather Stations






























Interactive Weather Map
Tropical Storm Tracking
New forecast layout! Learn more

10-Day Weather Forecast

Advertisements
Track Severe Weather on mobile